Time;durP1;ratioP1;P1;durP2;ratioP2;P2;SDS_P1;SDS_P2;PMS_P1;PMS_P2;Temp;Humidity;BMP_temperature;BMP_pressure;BME280_temperature;BME280_humidity;BME280_pressure;Samples;Min_cycle;Max_cycle;Signal;HPM_P1;HPM_P2
2022/02/24 00:00:55;;;;;;;13.65;4.93;;;;;;;1.45;100.00;93597.66;5011796;28;20498;-85
2022/02/24 00:03:23;;;;;;;17.50;5.93;;;;;;;1.35;100.00;93609.59;5011412;28;20054;-85
2022/02/24 00:05:50;;;;;;;8.55;4.60;;;;;;;1.28;100.00;93592.44;5011678;28;20133;-85
2022/02/24 00:08:17;;;;;;;10.18;6.50;;;;;;;1.42;100.00;93605.53;5011934;28;20054;-85
2022/02/24 00:10:43;;;;;;;11.77;5.55;;;;;;;1.38;100.00;93605.03;5011722;28;20050;-84
2022/02/24 00:13:10;;;;;;;8.40;4.95;;;;;;;1.27;100.00;93605.22;5011625;28;20046;-85
2022/02/24 00:15:37;;;;;;;12.40;5.57;;;;;;;1.12;100.00;93603.22;5011567;28;20057;-84
2022/02/24 00:18:04;;;;;;;9.63;5.03;;;;;;;1.09;100.00;93603.47;5011356;28;20046;-85
2022/02/24 00:20:32;;;;;;;9.85;4.82;;;;;;;1.10;100.00;93596.69;5011475;28;20418;-84
2022/02/24 00:22:59;;;;;;;12.65;5.78;;;;;;;0.97;100.00;93597.81;5011619;28;20054;-84
2022/02/24 00:25:26;;;;;;;9.38;5.25;;;;;;;1.00;100.00;93591.66;5011378;28;20045;-84
2022/02/24 00:27:53;;;;;;;11.68;6.25;;;;;;;0.97;100.00;93585.16;5011467;28;20050;-84
2022/02/24 00:30:20;;;;;;;10.05;5.47;;;;;;;0.97;100.00;93575.03;5011292;28;20490;-84
2022/02/24 00:32:47;;;;;;;11.43;5.78;;;;;;;0.83;100.00;93565.41;5011180;28;20050;-84
2022/02/24 00:35:14;;;;;;;15.38;5.80;;;;;;;0.89;100.00;93578.25;5011246;28;20414;-84
2022/02/24 00:37:42;;;;;;;11.18;5.15;;;;;;;0.76;100.00;93570.22;5011180;28;20050;-84
2022/02/24 00:40:10;;;;;;;10.82;5.45;;;;;;;0.75;100.00;93573.69;5011314;28;20108;-84
2022/02/24 00:42:38;;;;;;;10.45;5.90;;;;;;;0.71;100.00;93577.44;5011059;28;20100;-84
2022/02/24 00:45:05;;;;;;;12.57;5.47;;;;;;;0.71;100.00;93572.38;5010968;28;20046;-85
2022/02/24 00:47:32;;;;;;;10.88;5.55;;;;;;;0.58;100.00;93560.03;5010982;28;20112;-84
2022/02/24 00:49:59;;;;;;;9.35;5.20;;;;;;;0.73;100.00;93578.06;5011238;28;20105;-85
2022/02/24 00:52:26;;;;;;;14.88;6.57;;;;;;;0.71;100.00;93580.75;5011195;28;20410;-85
2022/02/24 00:54:54;;;;;;;12.13;5.40;;;;;;;0.58;100.00;93576.03;5010596;28;20490;-84
2022/02/24 00:57:21;;;;;;;9.82;4.53;;;;;;;0.61;100.00;93578.25;5010955;28;20050;-84
2022/02/24 00:59:49;;;;;;;11.52;5.07;;;;;;;0.56;100.00;93579.63;5010854;28;20100;-84
2022/02/24 01:02:17;;;;;;;13.60;5.43;;;;;;;0.59;100.00;93574.28;5010653;28;20054;-84
2022/02/24 01:04:43;;;;;;;11.73;5.57;;;;;;;0.60;100.00;93575.88;5010790;28;20552;-85
2022/02/24 01:07:10;;;;;;;10.85;5.47;;;;;;;0.52;100.00;93569.00;5010657;28;20050;-85
2022/02/24 01:09:37;;;;;;;14.38;5.93;;;;;;;0.52;100.00;93566.47;5010861;28;20042;-85
2022/02/24 01:12:06;;;;;;;11.15;4.93;;;;;;;0.48;100.00;93567.69;5010865;28;20092;-85
2022/02/24 01:14:34;;;;;;;10.13;5.55;;;;;;;0.42;100.00;93558.13;5011001;28;20049;-84
2022/02/24 01:17:01;;;;;;;7.50;3.63;;;;;;;0.48;100.00;93578.59;5010759;28;20577;-84
2022/02/24 01:19:28;;;;;;;9.40;5.10;;;;;;;0.44;100.00;93564.63;5010881;28;20042;-84
2022/02/24 01:21:55;;;;;;;9.45;4.50;;;;;;;0.48;100.00;93563.44;5010672;28;20058;-84
2022/02/24 01:24:22;;;;;;;10.05;5.10;;;;;;;0.49;100.00;93564.22;5010702;28;20446;-85
2022/02/24 01:26:48;;;;;;;8.52;4.40;;;;;;;0.48;100.00;93570.22;5010540;28;20042;-84
2022/02/24 01:29:36;;;;;;;11.52;5.38;;;;;;;0.45;100.00;93556.09;5010825;28;20050;-84
2022/02/24 01:32:03;;;;;;;11.57;4.85;;;;;;;0.43;100.00;93562.25;5011121;28;20438;-85
2022/02/24 01:34:30;;;;;;;9.40;4.82;;;;;;;0.47;100.00;93558.50;5010578;28;20108;-84
2022/02/24 01:36:57;;;;;;;10.30;3.80;;;;;;;0.49;100.00;93567.53;5010578;28;20088;-83
2022/02/24 01:39:24;;;;;;;10.82;4.85;;;;;;;0.44;100.00;93561.31;5010339;28;20050;-84
2022/02/24 01:41:52;;;;;;;7.60;3.10;;;;;;;0.40;100.00;93568.38;5010488;28;20049;-84
2022/02/24 01:44:20;;;;;;;13.32;4.43;;;;;;;0.28;100.00;93536.63;5010710;28;20049;-84
2022/02/24 01:46:47;;;;;;;13.05;3.95;;;;;;;0.18;100.00;93529.88;5010448;28;20053;-84
2022/02/24 01:49:14;;;;;;;7.15;3.33;;;;;;;0.32;100.00;93546.31;5010470;28;20054;-82
2022/02/24 01:51:41;;;;;;;8.80;4.43;;;;;;;0.36;100.00;93552.69;5010441;28;20046;-84
2022/02/24 01:54:09;;;;;;;10.63;3.97;;;;;;;0.26;100.00;93539.28;5010384;28;20046;-82
2022/02/24 01:56:36;;;;;;;7.07;3.85;;;;;;;0.37;100.00;93553.50;5010818;28;20077;-84
2022/02/24 01:59:04;;;;;;;8.52;3.90;;;;;;;0.26;100.00;93556.97;5010297;28;20053;-85
2022/02/24 02:01:33;;;;;;;8.10;3.90;;;;;;;0.23;100.00;93542.09;5010371;28;20112;-84
2022/02/24 02:04:00;;;;;;;8.25;3.90;;;;;;;0.24;100.00;93546.22;4994108;28;20491;-85
2022/02/24 02:06:27;;;;;;;9.50;4.43;;;;;;;0.19;100.00;93546.63;4991210;28;20046;-86
2022/02/24 02:08:55;;;;;;;11.55;4.18;;;;;;;0.22;100.00;93553.13;4994828;28;20054;-86
2022/02/24 02:11:22;;;;;;;7.35;3.80;;;;;;;0.09;100.00;93531.50;4994295;28;20054;-85
2022/02/24 02:13:49;;;;;;;7.63;3.95;;;;;;;0.14;100.00;93553.84;4994390;28;20157;-86
2022/02/24 02:16:16;;;;;;;10.32;3.90;;;;;;;0.12;100.00;93551.44;4994216;28;20054;-83
2022/02/24 02:18:44;;;;;;;7.75;3.72;;;;;;;0.10;100.00;93560.09;4994114;28;20046;-85
2022/02/24 02:21:12;;;;;;;7.15;3.38;;;;;;;0.14;100.00;93551.31;4993960;28;20109;-89
2022/02/24 02:23:39;;;;;;;6.00;3.72;;;;;;;-0.19;100.00;93518.78;4994240;28;20057;-85
2022/02/24 02:26:06;;;;;;;9.13;3.70;;;;;;;0.11;100.00;93561.66;4993936;28;20506;-86
2022/02/24 02:28:33;;;;;;;6.00;3.50;;;;;;;0.05;100.00;93559.69;4994039;28;20050;-85
2022/02/24 02:31:00;;;;;;;8.82;3.55;;;;;;;0.00;100.00;93539.91;4993923;28;20097;-86
2022/02/24 02:33:27;;;;;;;8.05;3.35;;;;;;;0.10;100.00;93560.09;4993703;28;20050;-84
2022/02/24 02:35:54;;;;;;;7.00;3.83;;;;;;;0.13;100.00;93555.56;4994067;28;20050;-84
2022/02/24 02:38:22;;;;;;;7.00;3.28;;;;;;;0.13;100.00;93560.59;4994075;28;20100;-83
2022/02/24 02:40:49;;;;;;;9.52;3.75;;;;;;;0.14;100.00;93566.47;4993835;28;20046;-87
2022/02/24 02:43:16;;;;;;;8.48;3.78;;;;;;;0.01;100.00;93544.03;4993650;28;20058;-87
2022/02/24 02:45:42;;;;;;;7.55;3.15;;;;;;;0.09;100.00;93561.81;4993843;28;20066;-83
2022/02/24 02:48:09;;;;;;;8.77;3.67;;;;;;;0.05;100.00;93568.06;4993318;28;20384;-85
2022/02/24 02:50:36;;;;;;;7.43;3.53;;;;;;;-0.02;100.00;93570.34;4993438;28;20101;-85
2022/02/24 02:53:04;;;;;;;10.07;3.72;;;;;;;-0.02;100.00;93570.34;4993375;28;20056;-87
2022/02/24 02:55:34;;;;;;;8.48;2.97;;;;;;;-0.01;100.00;93584.56;4993321;28;20053;-86
2022/02/24 02:58:01;;;;;;;8.25;3.58;;;;;;;0.02;100.00;93585.22;4993449;28;20046;-85
2022/02/24 03:00:28;;;;;;;10.27;3.65;;;;;;;-0.07;100.00;93592.69;4993454;28;20047;-85
2022/02/24 03:02:55;;;;;;;5.78;3.42;;;;;;;-0.09;100.00;93584.41;5000482;28;20631;-85
2022/02/24 03:05:22;;;;;;;11.48;3.83;;;;;;;-0.12;100.00;93588.94;5013043;28;20046;-86
2022/02/24 03:07:49;;;;;;;7.63;3.85;;;;;;;-0.15;100.00;93592.53;5012798;28;20490;-86
2022/02/24 03:10:16;;;;;;;8.02;3.30;;;;;;;-0.15;100.00;93590.00;5012505;28;20521;-85
2022/02/24 03:12:44;;;;;;;7.32;3.60;;;;;;;-0.78;100.00;93505.44;5012277;28;20054;-86
2022/02/24 03:15:14;;;;;;;8.68;4.15;;;;;;;-0.42;100.00;93544.34;5012060;28;20137;-86
2022/02/24 03:17:41;;;;;;;8.32;4.72;;;;;;;-0.24;100.00;93571.41;5012821;28;20049;-86
2022/02/24 03:20:09;;;;;;;6.85;4.05;;;;;;;-0.10;100.00;93587.09;5012199;28;20066;-86
2022/02/24 03:22:36;;;;;;;8.80;3.78;;;;;;;0.15;100.00;93593.31;5012448;28;20057;-86
2022/02/24 03:25:05;;;;;;;9.77;3.72;;;;;;;-0.21;100.00;93547.63;5012528;28;20050;-86
2022/02/24 03:27:31;;;;;;;8.18;3.60;;;;;;;0.31;100.00;93602.03;5012391;28;20053;-86
2022/02/24 03:30:00;;;;;;;9.32;4.07;;;;;;;0.29;100.00;93588.75;5012360;28;20042;-86
2022/02/24 03:32:26;;;;;;;9.80;4.53;;;;;;;0.23;100.00;93590.09;5012480;28;20081;-86
2022/02/24 03:34:53;;;;;;;11.10;5.50;;;;;;;0.38;100.00;93603.09;5012213;28;20045;-86
2022/02/24 03:37:20;;;;;;;13.63;6.80;;;;;;;0.38;100.00;93610.69;5012208;28;20506;-87
2022/02/24 03:39:48;;;;;;;7.00;2.70;;;;;;;0.20;100.00;93616.44;5012191;28;20045;-86
2022/02/24 03:42:15;;;;;;;7.25;3.25;;;;;;;0.12;100.00;93613.78;5011906;28;20076;-86
2022/02/24 03:44:42;;;;;;;7.47;2.35;;;;;;;0.12;100.00;93619.66;5012049;28;20112;-86
2022/02/24 03:47:10;;;;;;;6.95;2.90;;;;;;;0.14;100.00;93619.50;5011948;28;20406;-86
2022/02/24 03:49:37;;;;;;;5.28;2.65;;;;;;;0.24;100.00;93612.69;5011971;28;20485;-86
2022/02/24 03:52:06;;;;;;;6.05;2.70;;;;;;;0.29;100.00;93608.97;5011885;28;20504;-86
2022/02/24 03:54:33;;;;;;;8.13;3.20;;;;;;;0.19;100.00;93602.19;5011850;28;20050;-85
2022/02/24 03:57:00;;;;;;;8.82;4.68;;;;;;;0.33;100.00;93618.66;5011834;28;20124;-85
2022/02/24 03:59:27;;;;;;;7.47;3.28;;;;;;;0.48;100.00;93625.81;5012052;28;20414;-85
2022/02/24 04:01:53;;;;;;;5.50;2.88;;;;;;;0.48;100.00;93625.81;5011800;28;20453;-85
2022/02/24 04:04:21;;;;;;;8.95;3.97;;;;;;;0.54;100.00;93632.84;5011693;28;20054;-86
2022/02/24 04:06:48;;;;;;;8.02;3.30;;;;;;;0.57;100.00;93631.78;5011865;28;20049;-86
2022/02/24 04:09:15;;;;;;;7.72;2.95;;;;;;;0.50;100.00;93631.50;5011718;28;20097;-86
2022/02/24 04:11:42;;;;;;;8.50;4.60;;;;;;;0.49;100.00;93638.31;5011509;28;20482;-86
2022/02/24 04:14:09;;;;;;;7.53;3.75;;;;;;;0.49;100.00;93633.25;5011870;28;20054;-85
2022/02/24 04:16:35;;;;;;;5.30;3.95;;;;;;;0.37;100.00;93625.03;5011712;28;20054;-85
2022/02/24 04:19:02;;;;;;;8.90;3.33;;;;;;;0.35;100.00;93641.25;5011685;28;20042;-85
2022/02/24 04:21:31;;;;;;;6.05;3.25;;;;;;;0.18;100.00;93630.91;5011484;28;20050;-86
2022/02/24 04:23:58;;;;;;;9.18;4.15;;;;;;;0.16;100.00;93642.09;5011305;28;20053;-86
2022/02/24 04:26:25;;;;;;;8.25;3.30;;;;;;;0.20;100.00;93646.75;5011337;28;20061;-85
2022/02/24 04:28:51;;;;;;;6.13;2.47;;;;;;;0.14;100.00;93647.31;5010999;28;20053;-86
2022/02/24 04:31:18;;;;;;;5.97;3.30;;;;;;;0.24;100.00;93648.06;5011135;28;20049;-86
2022/02/24 04:33:45;;;;;;;6.10;2.42;;;;;;;0.01;100.00;93644.25;5011261;28;20046;-85
2022/02/24 04:36:12;;;;;;;7.45;2.80;;;;;;;0.06;100.00;93634.53;5011004;28;20050;-85
2022/02/24 04:38:40;;;;;;;7.55;3.35;;;;;;;0.17;100.00;93651.25;5011138;28;20046;-85
2022/02/24 04:41:08;;;;;;;10.95;7.72;;;;;;;0.22;100.00;93654.19;5011150;28;20053;-85
2022/02/24 04:43:35;;;;;;;13.85;8.52;;;;;;;0.43;100.00;93655.75;5009589;28;20654;-85
2022/02/24 04:46:02;;;;;;;12.63;5.85;;;;;;;0.58;100.00;93653.59;5011243;28;20124;-83
2022/02/24 04:48:30;;;;;;;20.23;10.73;;;;;;;0.66;100.00;93663.81;5011510;28;20046;-83
2022/02/24 04:50:57;;;;;;;22.27;12.60;;;;;;;0.83;100.00;93659.75;5011901;28;20053;-86
2022/02/24 04:53:26;;;;;;;29.90;15.70;;;;;;;0.76;100.00;93635.97;5011145;28;20498;-86
2022/02/24 04:55:54;;;;;;;14.68;8.93;;;;;;;0.77;100.00;93662.84;5011216;28;20072;-86
2022/02/24 04:58:23;;;;;;;19.25;10.80;;;;;;;0.73;100.00;93671.63;5011018;28;20553;-85
2022/02/24 05:00:50;;;;;;;11.75;7.80;;;;;;;0.87;100.00;93667.88;5011055;28;20050;-86
2022/02/24 05:03:17;;;;;;;12.90;6.90;;;;;;;0.96;100.00;93669.56;5010889;28;20057;-86
2022/02/24 05:05:44;;;;;;;11.93;6.57;;;;;;;1.00;100.00;93667.56;5011569;28;20054;-85
2022/02/24 05:08:11;;;;;;;10.52;6.00;;;;;;;0.92;100.00;93685.94;5011214;28;20441;-85
2022/02/24 05:10:38;;;;;;;16.70;7.25;;;;;;;0.54;100.00;93630.31;5010975;28;20065;-86
2022/02/24 05:13:06;;;;;;;17.40;7.40;;;;;;;0.90;100.00;93686.13;5010800;28;20491;-85
2022/02/24 05:15:33;;;;;;;11.45;7.15;;;;;;;0.91;100.00;93689.41;5010731;28;20046;-86
2022/02/24 05:18:00;;;;;;;18.65;7.95;;;;;;;0.64;100.00;93665.66;5010755;28;20410;-85
2022/02/24 05:20:27;;;;;;;59.33;24.30;;;;;;;0.72;100.00;93701.19;5010723;28;20109;-86
2022/02/24 05:22:53;;;;;;;31.45;11.60;;;;;;;0.72;100.00;93696.13;5010562;28;20495;-85
2022/02/24 05:25:20;;;;;;;18.17;8.63;;;;;;;0.81;100.00;93697.03;5010788;28;20050;-85
2022/02/24 05:27:47;;;;;;;11.75;5.70;;;;;;;0.48;100.00;93692.34;5010874;28;20101;-86
2022/02/24 05:30:17;;;;;;;9.15;5.00;;;;;;;0.31;100.00;93693.00;5010650;28;20449;-85
2022/02/24 05:32:44;;;;;;;7.95;4.18;;;;;;;0.16;100.00;93690.09;5010544;28;20495;-85
2022/02/24 05:35:11;;;;;;;9.65;5.60;;;;;;;0.19;100.00;93693.13;5010581;28;20050;-85
2022/02/24 05:37:38;;;;;;;8.60;4.10;;;;;;;0.25;100.00;93696.88;5010778;28;20057;-85
2022/02/24 05:40:07;;;;;;;12.40;5.13;;;;;;;0.07;100.00;93672.28;5008781;28;20112;-84
2022/02/24 05:42:33;;;;;;;14.52;7.63;;;;;;;-0.79;100.00;93547.50;4995811;28;20046;-85
2022/02/24 05:45:00;;;;;;;20.55;8.02;;;;;;;0.34;100.00;93696.09;5014188;28;20506;-85
2022/02/24 05:47:28;;;;;;;10.32;6.10;;;;;;;0.36;100.00;93689.16;5014277;28;20054;-84
2022/02/24 05:49:55;;;;;;;13.60;7.68;;;;;;;0.37;100.00;93695.78;5014471;28;20049;-85
2022/02/24 05:52:22;;;;;;;10.05;5.22;;;;;;;0.32;100.00;93694.63;5014240;28;20936;-85
2022/02/24 05:54:49;;;;;;;13.70;5.55;;;;;;;0.31;100.00;93698.88;5014164;28;20041;-85
2022/02/24 05:57:15;;;;;;;10.48;6.55;;;;;;;0.45;100.00;93700.19;5014251;28;20061;-84
2022/02/24 05:59:42;;;;;;;13.38;5.97;;;;;;;0.62;100.00;93708.00;5013901;28;20100;-84
2022/02/24 06:02:09;;;;;;;12.23;6.85;;;;;;;0.60;100.00;93725.06;5014036;28;20066;-84
2022/02/24 06:04:38;;;;;;;14.48;6.93;;;;;;;0.66;100.00;93722.75;5013925;28;20060;-84
2022/02/24 06:07:05;;;;;;;19.90;8.20;;;;;;;0.74;100.00;93717.03;5014030;28;20049;-84
2022/02/24 06:09:32;;;;;;;15.35;6.68;;;;;;;0.93;100.00;93735.63;5013996;28;20045;-84
2022/02/24 06:11:58;;;;;;;15.45;6.22;;;;;;;0.74;100.00;93716.25;5014952;28;20062;-86
2022/02/24 06:14:25;;;;;;;13.65;5.80;;;;;;;0.97;100.00;93739.47;5013942;28;20045;-86
2022/02/24 06:16:52;;;;;;;14.15;5.97;;;;;;;1.03;100.00;93750.78;5014203;28;20053;-86
2022/02/24 06:19:19;;;;;;;15.05;7.80;;;;;;;1.10;100.00;93754.34;5014042;28;20042;-86
2022/02/24 06:21:48;;;;;;;17.65;9.15;;;;;;;1.16;100.00;93751.25;5013879;28;20065;-86
2022/02/24 06:24:15;;;;;;;16.13;9.50;;;;;;;1.17;100.00;93752.06;5014265;28;21066;-86
2022/02/24 06:26:42;;;;;;;14.85;8.32;;;;;;;1.18;100.00;93756.19;5013899;28;20144;-84
2022/02/24 06:29:09;;;;;;;16.10;8.88;;;;;;;1.20;100.00;93751.78;5014253;28;20054;-84
2022/02/24 06:31:37;;;;;;;19.05;7.90;;;;;;;1.24;100.00;93752.31;5013469;28;20104;-85
2022/02/24 06:34:04;;;;;;;20.10;10.27;;;;;;;1.31;100.00;93758.41;5013618;28;20057;-84
2022/02/24 06:36:31;;;;;;;26.85;11.38;;;;;;;1.37;100.00;93757.03;5013328;28;20042;-85
2022/02/24 06:38:59;;;;;;;22.70;9.32;;;;;;;1.38;100.00;93751.06;5013711;28;20054;-85
2022/02/24 06:41:26;;;;;;;16.63;8.60;;;;;;;1.47;100.00;93747.69;5013158;28;20042;-85
2022/02/24 06:43:54;;;;;;;13.55;6.78;;;;;;;1.68;98.76;93759.31;5013161;28;20093;-85
2022/02/24 06:46:21;;;;;;;11.30;5.75;;;;;;;1.39;95.76;93760.25;5013344;28;20137;-85
2022/02/24 06:48:50;;;;;;;12.45;5.97;;;;;;;1.32;96.30;93770.13;5013160;28;20053;-85
2022/02/24 06:51:16;;;;;;;7.75;3.50;;;;;;;1.22;96.40;93777.75;5013232;28;20054;-85
2022/02/24 06:53:43;;;;;;;6.28;4.25;;;;;;;1.14;97.62;93770.03;5013001;28;20061;-86
2022/02/24 06:56:11;;;;;;;9.13;5.38;;;;;;;1.22;98.16;93769.34;5012893;28;20053;-85
2022/02/24 06:58:38;;;;;;;10.40;4.28;;;;;;;0.96;96.82;93773.28;5013339;28;20124;-86
2022/02/24 07:01:05;;;;;;;8.20;4.68;;;;;;;1.15;98.27;93764.06;5013111;28;20441;-85
2022/02/24 07:03:32;;;;;;;6.78;3.63;;;;;;;1.13;97.18;93774.31;5012630;28;20502;-85
2022/02/24 07:05:59;;;;;;;9.75;4.43;;;;;;;1.10;97.07;93771.28;5012853;28;20449;-84
2022/02/24 07:08:26;;;;;;;6.57;3.75;;;;;;;1.32;97.02;93775.19;5012664;28;20049;-84
2022/02/24 07:10:52;;;;;;;5.95;3.20;;;;;;;1.15;96.08;93785.09;5012927;28;20136;-84
2022/02/24 07:13:20;;;;;;;10.95;5.75;;;;;;;1.26;96.46;93788.41;5012869;28;20049;-85
2022/02/24 07:15:47;;;;;;;8.25;3.03;;;;;;;1.26;96.01;93785.88;5012850;28;20135;-84
2022/02/24 07:18:14;;;;;;;6.43;3.22;;;;;;;1.35;96.32;93779.19;5012690;28;20100;-84
2022/02/24 07:20:43;;;;;;;6.97;3.47;;;;;;;1.39;95.52;93761.03;5012579;28;20045;-89
2022/02/24 07:23:10;;;;;;;6.55;3.08;;;;;;;1.65;94.37;93779.84;5012446;28;20076;-84
2022/02/24 07:25:36;;;;;;;4.13;2.50;;;;;;;1.59;94.11;93791.34;5012412;28;20049;-84
2022/02/24 07:28:04;;;;;;;4.72;2.50;;;;;;;1.58;93.48;93779.63;5012454;28;20046;-84
2022/02/24 07:30:32;;;;;;;9.63;3.65;;;;;;;1.30;92.86;93785.44;5012526;28;20053;-86
2022/02/24 07:32:59;;;;;;;6.45;3.60;;;;;;;1.46;95.32;93791.66;5012338;28;20053;-84
2022/02/24 07:35:25;;;;;;;10.05;4.47;;;;;;;1.51;94.93;93792.03;5012215;28;20050;-84
2022/02/24 07:37:52;;;;;;;4.85;2.47;;;;;;;1.31;93.98;93797.16;5012268;28;20449;-83
2022/02/24 07:40:21;;;;;;;5.85;2.92;;;;;;;1.28;94.44;93789.84;5012179;28;20045;-85
2022/02/24 07:42:47;;;;;;;10.48;3.67;;;;;;;1.38;92.87;93789.03;5012407;28;20053;-82
2022/02/24 07:45:15;;;;;;;8.00;2.85;;;;;;;1.49;91.31;93791.38;5012036;28;20064;-83
2022/02/24 07:47:43;;;;;;;9.82;2.83;;;;;;;1.59;91.65;93786.28;5012235;28;20760;-83
2022/02/24 07:50:13;;;;;;;5.38;2.45;;;;;;;1.50;91.92;93792.97;5011995;28;20050;-84
2022/02/24 07:52:41;;;;;;;5.13;2.42;;;;;;;1.39;91.31;93798.22;5011998;28;20597;-85
2022/02/24 07:55:08;;;;;;;;;;;;;;;;;;;;;
2022/02/24 07:57:35;;;;;;;7.07;3.08;;;;;;;1.23;91.83;93774.28;5012246;28;20593;-82
2022/02/24 08:00:02;;;;;;;5.32;2.90;;;;;;;1.35;92.62;93789.31;5011848;28;20054;-83
2022/02/24 08:02:29;;;;;;;6.47;2.90;;;;;;;1.31;92.30;93793.84;5012138;28;20105;-83
2022/02/24 08:04:57;;;;;;;8.93;4.00;;;;;;;1.35;92.28;93792.63;5010764;28;20057;-86
2022/02/24 08:07:24;;;;;;;9.80;4.18;;;;;;;1.35;92.91;93797.69;5012096;28;20046;-83
2022/02/24 08:09:51;;;;;;;11.18;7.13;;;;;;;1.39;92.44;93788.88;5011889;28;20042;-83
2022/02/24 08:15:03;;;;;;;3.22;2.17;;;;;;;1.57;90.57;93790.69;5011515;28;20057;-84
2022/02/24 08:17:30;;;;;;;5.57;2.20;;;;;;;1.50;90.69;93790.44;5011597;28;20046;-84
2022/02/24 08:19:58;;;;;;;10.88;5.72;;;;;;;1.50;90.51;93764.31;5011525;28;20053;-84
2022/02/24 08:22:25;;;;;;;6.57;3.30;;;;;;;1.75;89.46;93782.34;5011429;28;20052;-83
2022/02/24 08:24:52;;;;;;;7.03;2.67;;;;;;;1.91;90.87;93781.72;5011394;28;20425;-83
2022/02/24 08:27:19;;;;;;;8.02;4.18;;;;;;;2.11;91.57;93777.34;5011353;28;20525;-84
2022/02/24 08:29:46;;;;;;;6.70;3.60;;;;;;;2.26;90.64;93785.22;5011706;28;20473;-84
2022/02/24 08:32:14;;;;;;;8.70;4.28;;;;;;;2.36;91.25;93773.28;5011524;28;20057;-84
2022/02/24 08:34:41;;;;;;;7.63;3.00;;;;;;;2.48;88.49;93778.94;5011221;28;20445;-84
2022/02/24 08:37:11;;;;;;;7.85;3.60;;;;;;;1.79;86.71;93652.72;5011426;28;20042;-88
2022/02/24 08:39:38;;;;;;;6.47;3.10;;;;;;;2.60;85.06;93766.03;5011207;28;20049;-84
2022/02/24 08:42:06;;;;;;;15.63;6.30;;;;;;;2.66;86.64;93768.78;5011279;28;20144;-86
2022/02/24 08:44:32;;;;;;;18.58;10.43;;;;;;;3.15;85.88;93766.72;5011204;28;20457;-85
2022/02/24 08:46:59;;;;;;;5.75;3.78;;;;;;;3.15;81.98;93772.59;5011263;28;20049;-84
2022/02/24 08:49:26;;;;;;;4.35;1.90;;;;;;;2.94;82.53;93775.47;5011368;28;20073;-83
2022/02/24 08:51:53;;;;;;;4.13;2.20;;;;;;;2.77;83.16;93769.47;5011258;28;20077;-81
2022/02/24 08:54:21;;;;;;;6.45;3.50;;;;;;;2.94;84.50;93765.34;5010827;28;20104;-82
2022/02/24 08:56:49;;;;;;;5.15;2.42;;;;;;;3.10;83.14;93772.25;5011033;28;20553;-84
2022/02/24 08:59:16;;;;;;;5.75;2.85;;;;;;;3.02;82.49;93751.91;5011598;28;20057;-86
2022/02/24 09:01:43;;;;;;;8.15;4.05;;;;;;;3.47;82.74;93775.44;5011005;28;20062;-86
2022/02/24 09:04:10;;;;;;;8.23;4.70;;;;;;;3.64;80.10;93772.97;5010974;28;21948;-84
2022/02/24 09:06:37;;;;;;;6.38;2.85;;;;;;;3.45;79.69;93773.09;5011030;28;20046;-87
2022/02/24 09:09:04;;;;;;;8.82;4.88;;;;;;;3.53;80.43;93776.59;5011573;28;20054;-84
2022/02/24 09:11:32;;;;;;;10.35;4.07;;;;;;;3.56;78.84;93768.69;5010527;28;20053;-84
2022/02/24 09:13:59;;;;;;;11.73;6.25;;;;;;;3.81;81.11;93771.31;5010780;28;20053;-84
2022/02/24 09:16:27;;;;;;;7.47;3.70;;;;;;;4.14;79.55;93779.03;5013362;28;20414;-84
2022/02/24 09:18:54;;;;;;;8.52;2.58;;;;;;;3.79;77.18;93780.84;5015661;28;20042;-86
2022/02/24 09:21:21;;;;;;;6.70;3.45;;;;;;;3.46;77.99;93782.28;5015049;28;20065;-87
2022/02/24 09:23:48;;;;;;;4.72;2.05;;;;;;;3.30;78.78;93788.09;5014738;28;20132;-83
2022/02/24 09:26:15;;;;;;;13.20;5.97;;;;;;;3.33;80.39;93789.50;5015022;28;20062;-84
2022/02/24 09:28:43;;;;;;;4.40;2.00;;;;;;;3.17;80.59;93785.13;5014841;28;20133;-84
2022/02/24 09:31:10;;;;;;;3.10;1.55;;;;;;;3.13;81.00;93792.25;5014724;28;20551;-85
2022/02/24 09:33:37;;;;;;;9.40;5.40;;;;;;;3.27;81.76;93774.88;5014708;28;20050;-84
2022/02/24 09:36:05;;;;;;;5.72;2.92;;;;;;;3.48;80.86;93777.06;5014609;28;20510;-84
2022/02/24 09:38:32;;;;;;;7.30;3.10;;;;;;;3.61;80.62;93774.88;5014421;28;20057;-85
2022/02/24 09:40:59;;;;;;;9.70;4.60;;;;;;;3.80;79.97;93773.03;5014694;28;20041;-85
2022/02/24 09:43:31;;;;;;;6.43;4.00;;;;;;;3.87;78.78;93758.78;5014613;28;20054;-84
2022/02/24 09:46:01;;;;;;;9.50;5.05;;;;;;;4.12;78.05;93781.72;5014554;28;20391;-85
2022/02/24 09:48:31;;;;;;;11.65;6.10;;;;;;;4.16;79.49;93773.78;5014685;28;20054;-85
2022/02/24 09:51:00;;;;;;;10.52;6.28;;;;;;;4.46;80.39;93763.97;5014203;28;20402;-85
2022/02/24 09:53:30;;;;;;;8.73;4.88;;;;;;;4.18;79.14;93756.63;5014290;28;20137;-84
2022/02/24 09:55:59;;;;;;;8.65;5.43;;;;;;;4.24;78.40;93764.44;5015259;28;20041;-84
2022/02/24 09:58:28;;;;;;;5.80;3.33;;;;;;;4.17;78.25;93766.00;5013906;28;20046;-86
2022/02/24 10:00:59;;;;;;;5.53;3.05;;;;;;;4.39;80.28;93754.44;5013677;28;20092;-85
2022/02/24 10:03:33;;;;;;;8.13;3.15;;;;;;;4.51;79.08;93759.22;5013903;28;20050;-86
2022/02/24 10:06:01;;;;;;;6.50;2.85;;;;;;;4.65;79.26;93755.22;5013161;28;20048;-86
2022/02/24 10:08:29;;;;;;;4.20;2.42;;;;;;;4.97;78.76;93751.09;5014922;28;20073;-86
2022/02/24 10:11:01;;;;;;;6.57;2.78;;;;;;;5.13;77.14;93742.63;5012598;28;20133;-94
2022/02/24 10:13:28;;;;;;;7.30;3.22;;;;;;;4.81;77.72;93751.88;5012677;28;20081;-84
2022/02/24 10:15:58;;;;;;;5.88;3.70;;;;;;;4.29;79.73;93748.69;5012670;28;20041;-88
2022/02/24 10:18:28;;;;;;;6.72;3.70;;;;;;;4.04;82.83;93742.78;5013922;28;20100;-90
2022/02/24 10:21:00;;;;;;;13.23;7.68;;;;;;;4.15;83.21;93739.94;5013243;28;20076;-88
2022/02/24 10:23:33;;;;;;;3.30;1.52;;;;;;;4.14;82.03;93735.81;5013428;28;20080;-93
2022/02/24 10:26:03;;;;;;;4.07;2.13;;;;;;;4.39;83.22;93736.63;5013117;28;20054;-84
2022/02/24 10:28:42;;;;;;;3.90;2.47;;;;;;;4.68;80.92;93734.56;5010106;28;20479;-89
2022/02/24 10:31:10;;;;;;;5.20;2.10;;;;;;;4.61;78.71;93723.41;5011062;28;20052;-85
2022/02/24 10:33:39;;;;;;;7.68;3.97;;;;;;;4.52;81.31;93670.00;5013383;28;21011;-87
2022/02/24 10:36:15;;;;;;;6.88;3.17;;;;;;;4.93;81.47;93704.78;5013286;28;20072;-84
2022/02/24 10:38:44;;;;;;;2.67;1.70;;;;;;;5.31;79.13;93728.88;5013749;28;20045;-87
2022/02/24 10:41:11;;;;;;;4.55;3.17;;;;;;;5.15;80.86;93691.53;5012880;28;20046;-86
2022/02/24 10:43:39;;;;;;;2.38;1.40;;;;;;;5.17;76.71;93728.59;5013076;28;20050;-93
2022/02/24 10:46:08;;;;;;;7.07;3.45;;;;;;;4.38;79.90;93722.31;5012699;28;20084;-88
2022/02/24 10:48:54;;;;;;;19.45;10.10;;;;;;;4.31;80.37;93720.56;5013290;28;20046;-86
2022/02/24 10:51:24;;;;;;;;;;;;;;;4.27;81.41;93722.63;5013281;28;20410;-84
2022/02/24 10:54:00;;;;;;;6.35;3.83;;;;;;;4.10;81.19;93711.63;5013429;28;19925;-84
2022/02/24 10:56:30;;;;;;;8.90;3.33;;;;;;;4.24;82.19;93674.63;5013456;28;20050;-91
2022/02/24 10:58:58;;;;;;;4.47;2.65;;;;;;;4.64;80.83;93710.41;5013697;28;20046;-88
2022/02/24 11:01:29;;;;;;;5.00;2.00;;;;;;;4.46;79.37;93698.63;5013328;28;20108;-90
2022/02/24 11:04:01;;;;;;;3.47;1.95;;;;;;;4.65;79.35;93712.78;5013046;28;20105;-86
2022/02/24 11:06:34;;;;;;;3.65;2.50;;;;;;;4.59;83.15;93705.00;5012893;28;20053;-86
2022/02/24 11:09:02;;;;;;;4.60;2.45;;;;;;;4.82;81.90;93700.03;5013120;28;20138;-84
2022/02/24 11:11:30;;;;;;;3.95;1.90;;;;;;;4.92;81.17;93710.03;5013505;28;20057;-89
2022/02/24 11:13:58;;;;;;;3.15;1.88;;;;;;;5.01;79.13;93696.34;5013295;28;20404;-86
2022/02/24 11:16:29;;;;;;;3.78;2.05;;;;;;;5.16;79.26;93680.38;5013132;28;20405;-89
2022/02/24 11:18:57;;;;;;;4.53;2.55;;;;;;;5.19;80.44;93680.84;5012964;28;20054;-87
2022/02/24 11:21:31;;;;;;;3.83;2.03;;;;;;;5.11;76.99;93682.63;5012781;28;20100;-87
2022/02/24 11:23:59;;;;;;;4.22;2.20;;;;;;;5.35;78.37;93686.84;5011872;28;20081;-85
2022/02/24 11:26:35;;;;;;;6.10;4.15;;;;;;;4.92;80.48;93695.53;5012290;28;20478;-87
2022/02/24 11:29:11;;;;;;;7.47;3.60;;;;;;;4.90;81.69;93700.00;5012687;28;20057;-85
2022/02/24 11:31:48;;;;;;;3.58;1.98;;;;;;;4.88;78.00;93656.13;5012813;28;20050;-86
2022/02/24 11:34:15;;;;;;;5.97;2.42;;;;;;;5.34;78.19;93691.13;5013175;28;20042;-86
2022/02/24 11:36:43;;;;;;;6.05;2.97;;;;;;;5.39;76.00;93677.91;5013552;28;20060;-84
2022/02/24 11:39:16;;;;;;;10.88;4.32;;;;;;;5.50;74.90;93679.28;5012521;28;20050;-87